6NA6 weather

Marsh Brothers Airstrip
Newburg, North Dakota, United States

Public forecast

Using degrees Fahrenheit for public forecast. Weather courtesy of forecast.io.

METAR (pilot weather report)

Closest report is Minot Air Force Base, 19.4 nm (36.0 km) SW. Retrieved 2019/07/24 00:56 UTC (1 hour ago):

KMIB 240056Z AUTO 13011KT 10SM CLR 26/15 A3009 RMK AO2 SLP190 T02600154 $

TAF (pilot weather forecast)

Forecast is more than 12 hours old.

Closest forecast is Minot Air Force Base, 19.4 nm (36.0 km) SW. Retrieved 2019/07/19 17:09 UTC (4 days ago):

TAF KMIB 191700Z 1917/2023 29015G20KT 9999 SKC QNH2976INS BECMG 2000/2001 28009KT 9999 FEW150 QNH2980INS TX25/1922Z TN12/2011Z LAST NO AMDS AFT 1917 NEXT 2909